Time;durP1;ratioP1;P1;durP2;ratioP2;P2;SDS_P1;SDS_P2;PMS_P1;PMS_P2;Temp;Humidity;BMP_temperature;BMP_pressure;BME280_temperature;BME280_humidity;BME280_pressure;Samples;Min_cycle;Max_cycle;Signal;HPM_P1;HPM_P2
2022/05/10 00:01:49;;;;;;;10.15;5.97;;;;;;;13.36;95.14;101952.94;5063649;28;20059;-32
2022/05/10 00:04:19;;;;;;;8.95;6.60;;;;;;;13.36;95.75;101944.53;5063287;28;20044;-34
2022/05/10 00:06:49;;;;;;;12.70;7.45;;;;;;;13.36;96.28;101944.53;5064519;28;20060;-31
2022/05/10 00:09:21;;;;;;;10.02;6.95;;;;;;;13.36;96.53;101938.09;5063524;28;20041;-37
2022/05/10 00:11:50;;;;;;;;;;;;;;;13.31;99.36;101926.91;5064789;28;20048;-32
2022/05/10 00:14:18;;;;;;;11.73;6.90;;;;;;;13.26;99.09;101938.16;5063464;28;19920;-34
2022/05/10 00:16:46;;;;;;;9.45;5.68;;;;;;;13.30;97.81;101933.63;5063701;28;20040;-34
2022/05/10 00:19:16;;;;;;;11.73;5.82;;;;;;;13.32;96.84;101932.22;5058667;28;20406;-28
2022/05/10 00:21:44;;;;;;;9.75;6.13;;;;;;;13.33;96.51;101931.09;5058899;28;20084;-32
2022/05/10 00:24:12;;;;;;;12.40;6.82;;;;;;;13.33;96.05;101928.28;5050838;28;20048;-34
2022/05/10 00:26:40;;;;;;;9.32;6.22;;;;;;;13.35;95.93;101925.19;5058806;28;20056;-35
2022/05/10 00:29:10;;;;;;;8.70;5.45;;;;;;;13.33;96.01;101919.88;5063501;28;20051;-31
2022/05/10 00:31:38;;;;;;;13.93;7.32;;;;;;;13.33;95.70;101916.25;5063510;28;20143;-28
2022/05/10 00:34:06;;;;;;;11.38;7.40;;;;;;;13.32;95.70;101917.38;5064294;28;20044;-35
2022/05/10 00:36:34;;;;;;;9.48;5.90;;;;;;;13.31;95.62;101908.13;5055051;28;20049;-33
2022/05/10 00:39:02;;;;;;;10.00;5.55;;;;;;;13.31;95.37;101913.72;5064007;28;20072;-34
2022/05/10 00:41:37;;;;;;;11.20;6.60;;;;;;;13.31;95.57;101910.91;5061001;28;20045;-36
2022/05/10 00:44:11;;;;;;;11.23;6.55;;;;;;;13.32;95.38;101909.78;5063416;28;20470;-34
2022/05/10 00:46:45;;;;;;;10.52;6.30;;;;;;;13.34;94.84;101903.91;5061185;28;20056;-33
2022/05/10 00:49:21;;;;;;;9.18;5.80;;;;;;;13.35;94.25;101906.41;5064086;28;20052;-32
2022/05/10 00:51:55;;;;;;;8.68;5.53;;;;;;;13.37;93.96;101906.97;5060052;28;20048;-34
2022/05/10 00:54:30;;;;;;;7.63;5.00;;;;;;;13.37;93.50;101901.34;5064322;28;20060;-33
2022/05/10 00:57:09;;;;;;;12.20;5.57;;;;;;;13.37;93.20;101895.75;5061107;28;20067;-30
2022/05/10 00:59:52;;;;;;;10.65;6.28;;;;;;;13.36;93.32;101887.63;5064128;28;20048;-28
2022/05/10 01:02:26;;;;;;;;;;;;;;;13.31;93.68;101887.66;5061528;28;20048;-37
2022/05/10 01:05:03;;;;;;;8.80;5.32;;;;;;;13.29;93.27;101884.31;5063476;28;19920;-28
2022/05/10 01:07:36;;;;;;;8.63;5.55;;;;;;;13.32;92.92;101876.16;5060905;28;20052;-32
2022/05/10 01:10:10;;;;;;;15.15;6.25;;;;;;;13.32;92.78;101873.34;5063702;28;20048;-32
2022/05/10 01:12:43;;;;;;;9.85;5.70;;;;;;;13.32;92.83;101864.09;5059960;28;20044;-27
2022/05/10 01:15:16;;;;;;;12.52;6.60;;;;;;;13.30;92.90;101858.78;5063909;28;20048;-31
2022/05/10 01:17:46;;;;;;;10.45;6.28;;;;;;;13.30;92.58;101860.75;5060792;28;20047;-32
2022/05/10 01:20:18;;;;;;;12.45;6.25;;;;;;;13.31;92.61;101851.22;5063011;28;20052;-35
2022/05/10 01:22:54;;;;;;;9.85;6.38;;;;;;;13.31;92.08;101857.66;5062350;28;20044;-31
2022/05/10 01:25:38;;;;;;;10.18;6.30;;;;;;;13.32;91.81;101850.09;5061767;28;20051;-32
2022/05/10 01:28:16;;;;;;;8.65;5.40;;;;;;;13.30;92.03;101844.78;5060956;28;20447;-25
2022/05/10 01:30:45;;;;;;;9.38;5.60;;;;;;;13.29;91.72;101848.69;5065566;28;20055;-35
2022/05/10 01:33:29;;;;;;;9.35;5.60;;;;;;;13.31;91.29;101846.44;5063330;28;20066;-32
2022/05/10 01:36:05;;;;;;;7.47;5.10;;;;;;;13.32;90.91;101836.91;5067726;28;20048;-32
2022/05/10 01:38:40;;;;;;;7.97;5.05;;;;;;;13.34;90.66;101831.84;5064207;28;20044;-34
2022/05/10 01:41:17;;;;;;;10.18;5.38;;;;;;;13.34;90.46;101829.03;5066318;28;20037;-34
2022/05/10 01:43:49;;;;;;;8.93;4.97;;;;;;;13.36;89.92;101832.38;5063892;28;20044;-31
2022/05/10 01:46:19;;;;;;;;;;;;;;;13.33;89.86;101827.38;5067837;28;20507;-33
2022/05/10 01:48:52;;;;;;;12.32;4.75;;;;;;;13.33;89.99;101816.16;5063463;28;19924;-41
2022/05/10 01:51:27;;;;;;;7.55;5.00;;;;;;;13.37;89.36;101816.41;5058459;28;20156;-26
2022/05/10 01:53:55;;;;;;;11.18;5.53;;;;;;;13.37;89.20;101811.63;5063572;28;20086;-33
2022/05/10 01:56:26;;;;;;;9.57;4.90;;;;;;;13.38;89.18;101813.31;5066644;28;20053;-29
2022/05/10 01:58:56;;;;;;;9.00;5.55;;;;;;;13.40;89.00;101804.56;5063895;28;20052;-28
2022/05/10 02:01:30;;;;;;;7.30;4.70;;;;;;;13.41;88.83;101807.09;5066042;28;20049;-37
2022/05/10 02:04:03;;;;;;;9.18;5.55;;;;;;;13.39;88.85;101792.53;5063795;28;20106;-36
2022/05/10 02:06:35;;;;;;;12.43;6.25;;;;;;;13.40;88.85;101787.75;5066592;28;20071;-31
2022/05/10 02:09:10;;;;;;;10.27;5.80;;;;;;;13.40;88.70;101790.56;5062894;28;20052;-31
2022/05/10 02:11:41;;;;;;;7.45;4.70;;;;;;;13.40;88.44;101788.59;5066822;28;20052;-30
2022/05/10 02:14:20;;;;;;;7.40;4.30;;;;;;;13.42;88.29;101780.72;5063530;28;20509;-27
2022/05/10 02:16:54;;;;;;;8.32;4.38;;;;;;;13.43;88.11;101782.41;5065916;28;20044;-29
2022/05/10 02:19:25;;;;;;;7.65;4.63;;;;;;;13.45;87.80;101777.34;5063310;28;20075;-32
2022/05/10 02:21:57;;;;;;;7.47;4.22;;;;;;;13.44;87.80;101784.06;5065783;28;20508;-31
2022/05/10 02:24:29;;;;;;;7.68;4.35;;;;;;;13.47;87.69;101781.81;5057386;28;20037;-32
2022/05/10 02:27:01;;;;;;;7.43;4.50;;;;;;;13.48;87.71;101781.50;5066325;28;20051;-32
2022/05/10 02:29:34;;;;;;;8.18;4.50;;;;;;;13.51;87.61;101777.28;5062517;28;20041;-31
2022/05/10 02:34:55;;;;;;;8.37;4.20;;;;;;;13.49;87.58;101769.16;5063176;28;20051;-30
2022/05/10 02:37:23;;;;;;;6.35;4.10;;;;;;;13.51;87.58;101766.06;5056943;28;20092;-29
2022/05/10 02:39:51;;;;;;;8.85;5.07;;;;;;;13.54;87.39;101759.88;5062964;28;20418;-28
2022/05/10 02:42:22;;;;;;;6.75;4.18;;;;;;;13.59;86.96;101759.81;5064962;28;20102;-31
2022/05/10 02:44:54;;;;;;;6.80;3.88;;;;;;;13.62;86.73;101756.41;5062529;28;20048;-32
2022/05/10 02:47:29;;;;;;;;;;;;;;;13.59;87.14;101749.41;5061035;28;20102;-28
2022/05/10 02:49:57;;;;;;;7.65;4.10;;;;;;;13.59;87.03;101743.00;5062227;28;19927;-29
2022/05/10 02:52:26;;;;;;;7.40;4.18;;;;;;;13.66;86.50;101749.06;5049122;28;20045;-31
2022/05/10 02:54:55;;;;;;;7.32;4.45;;;;;;;13.72;86.41;101745.91;5061402;28;20048;-34
2022/05/10 02:57:26;;;;;;;7.10;4.13;;;;;;;13.77;86.09;101739.41;5059644;28;20051;-31
2022/05/10 02:59:59;;;;;;;7.75;4.68;;;;;;;13.79;86.29;101737.13;5060525;28;20047;-29
2022/05/10 03:02:32;;;;;;;7.57;4.50;;;;;;;13.84;86.00;101733.41;5063006;28;20037;-33
2022/05/10 03:05:00;;;;;;;8.90;5.00;;;;;;;13.86;86.07;101734.78;5063961;28;20056;-29
2022/05/10 03:07:30;;;;;;;6.82;4.28;;;;;;;13.90;85.71;101729.41;5065595;28;20398;-34
2022/05/10 03:09:57;;;;;;;7.95;4.72;;;;;;;13.92;85.82;101725.19;5060976;28;20037;-34
2022/05/10 03:12:25;;;;;;;8.30;4.68;;;;;;;13.94;86.07;101719.28;5064668;28;20056;-26
2022/05/10 03:14:59;;;;;;;7.75;4.18;;;;;;;13.97;85.80;101730.75;5060850;28;20489;-29
2022/05/10 03:17:26;;;;;;;8.18;4.35;;;;;;;14.00;85.79;101732.91;5059974;28;20052;-37
2022/05/10 03:19:56;;;;;;;8.85;4.47;;;;;;;14.02;85.73;101722.22;5059227;28;20080;-30
2022/05/10 03:22:24;;;;;;;10.63;4.30;;;;;;;14.03;85.88;101711.84;5062762;28;20056;-31
2022/05/10 03:24:51;;;;;;;7.63;4.88;;;;;;;14.02;86.22;101711.00;5059761;28;20156;-30
2022/05/10 03:27:25;;;;;;;10.48;5.05;;;;;;;14.04;86.62;101708.72;5061002;28;20371;-35
2022/05/10 03:29:53;;;;;;;9.23;5.28;;;;;;;14.05;86.94;101709.56;5059481;28;20045;-30
2022/05/10 03:32:22;;;;;;;8.10;4.78;;;;;;;14.05;87.31;101707.59;5061619;28;20475;-29
2022/05/10 03:34:57;;;;;;;7.47;4.57;;;;;;;14.06;87.13;101700.84;5059343;28;20044;-32
2022/05/10 03:37:27;;;;;;;8.57;4.82;;;;;;;14.07;87.33;101699.72;5060524;28;20053;-33
2022/05/10 03:39:55;;;;;;;7.80;5.40;;;;;;;14.06;87.62;101692.44;5056677;28;20049;-32
2022/05/10 03:42:23;;;;;;;10.07;4.63;;;;;;;14.07;87.86;101694.09;5060232;28;20045;-31
2022/05/10 03:44:52;;;;;;;8.45;5.22;;;;;;;14.09;87.81;101691.00;5057149;28;20049;-34
2022/05/10 03:47:22;;;;;;;7.13;5.38;;;;;;;14.11;87.82;101689.56;5059957;28;20037;-29
2022/05/10 03:49:50;;;;;;;9.93;6.25;;;;;;;14.12;88.17;101690.38;5057704;28;20045;-29
2022/05/10 03:52:18;;;;;;;9.70;5.05;;;;;;;14.14;88.06;101679.69;5062265;28;20048;-28
2022/05/10 03:54:47;;;;;;;8.80;4.72;;;;;;;14.13;88.35;101684.47;5058224;28;20051;-29
2022/05/10 03:57:15;;;;;;;8.55;5.45;;;;;;;14.16;88.33;101685.00;5062019;28;20091;-34
2022/05/10 03:59:43;;;;;;;9.23;5.68;;;;;;;14.16;88.44;101679.41;5059132;28;20059;-36
2022/05/10 04:02:11;;;;;;;10.55;5.32;;;;;;;14.17;88.38;101669.84;5059229;28;20046;-31
2022/05/10 04:04:41;;;;;;;8.02;5.03;;;;;;;14.19;88.42;101665.56;5045175;28;20055;-33
2022/05/10 04:07:09;;;;;;;8.25;4.82;;;;;;;14.21;88.38;101665.25;5057050;28;20075;-31
2022/05/10 04:09:38;;;;;;;10.02;5.20;;;;;;;14.24;88.14;101667.47;5059704;28;20053;-32
2022/05/10 04:12:06;;;;;;;10.68;6.07;;;;;;;14.24;88.32;101668.31;5061975;28;20041;-33
2022/05/10 04:14:34;;;;;;;8.48;5.60;;;;;;;14.28;87.97;101668.53;5062043;28;20490;-31
2022/05/10 04:17:02;;;;;;;8.85;5.13;;;;;;;14.31;87.69;101662.31;5062784;28;20048;-32
2022/05/10 04:19:30;;;;;;;7.30;4.22;;;;;;;14.34;87.55;101656.09;5057295;28;20131;-32
2022/05/10 04:21:59;;;;;;;9.25;5.55;;;;;;;14.35;87.73;101660.56;5057156;28;20059;-32
2022/05/10 04:24:27;;;;;;;9.50;5.47;;;;;;;14.36;87.75;101659.44;5063702;28;20053;-33
2022/05/10 04:27:00;;;;;;;9.40;5.15;;;;;;;14.39;87.59;101653.19;5057659;28;20409;-31
2022/05/10 04:29:29;;;;;;;8.98;5.00;;;;;;;14.42;87.59;101652.59;5058569;28;20045;-33
2022/05/10 04:31:57;;;;;;;8.48;5.25;;;;;;;14.42;87.92;101653.44;5057488;28;20132;-31
2022/05/10 04:34:25;;;;;;;9.38;5.07;;;;;;;14.43;88.02;101649.50;5060799;28;20041;-29
2022/05/10 04:36:52;;;;;;;10.20;5.28;;;;;;;14.44;88.32;101637.13;5065225;28;20095;-28
2022/05/10 04:39:24;;;;;;;10.43;5.15;;;;;;;14.45;88.61;101640.75;5059709;28;20445;-29
2022/05/10 04:41:53;;;;;;;10.73;5.90;;;;;;;14.46;88.64;101648.06;5063024;28;20569;-32
2022/05/10 04:44:21;;;;;;;9.40;5.32;;;;;;;14.50;88.55;101639.84;5059226;28;20048;-39
2022/05/10 04:46:49;;;;;;;9.63;5.38;;;;;;;14.52;88.59;101641.22;5062939;28;20055;-31
2022/05/10 04:49:19;;;;;;;7.75;5.60;;;;;;;14.55;88.53;101636.97;5058956;28;20049;-32
2022/05/10 04:51:48;;;;;;;10.02;5.50;;;;;;;14.59;88.25;101638.81;5060655;28;20040;-28
2022/05/10 04:54:15;;;;;;;12.40;6.00;;;;;;;14.62;87.81;101629.78;5060089;28;20053;-32
2022/05/10 04:56:44;;;;;;;7.60;5.22;;;;;;;14.68;87.63;101634.19;5062082;28;20040;-34
2022/05/10 04:59:12;;;;;;;9.90;5.40;;;;;;;14.70;87.55;101625.44;5060868;28;20048;-32
2022/05/10 05:01:40;;;;;;;7.75;4.65;;;;;;;14.75;87.15;101628.19;5062590;28;20037;-33
2022/05/10 05:04:08;;;;;;;10.48;5.40;;;;;;;14.80;86.75;101631.72;5061981;28;20092;-33
2022/05/10 05:06:39;;;;;;;8.00;4.70;;;;;;;14.85;86.52;101625.16;5065930;28;20045;-32
2022/05/10 05:09:08;;;;;;;8.27;5.47;;;;;;;14.90;86.04;101629.88;5065835;28;20460;-28
2022/05/10 05:11:36;;;;;;;11.65;5.55;;;;;;;14.94;85.85;101619.69;5065477;28;20550;-29
2022/05/10 05:14:07;;;;;;;10.30;4.88;;;;;;;15.01;85.46;101626.53;5065255;28;20405;-34
2022/05/10 05:16:35;;;;;;;8.30;4.65;;;;;;;15.06;84.94;101612.41;5060906;28;20049;-35
2022/05/10 05:19:03;;;;;;;8.18;5.15;;;;;;;15.13;84.64;101612.00;5069419;28;20080;-30
2022/05/10 05:21:31;;;;;;;6.97;4.32;;;;;;;15.19;84.43;101612.72;5061722;28;20045;-28
2022/05/10 05:24:00;;;;;;;9.07;4.82;;;;;;;15.24;84.21;101604.16;5040065;28;20692;-34
2022/05/10 05:26:27;;;;;;;9.20;4.60;;;;;;;15.29;84.14;101607.72;5059318;28;20041;-29
2022/05/10 05:28:55;;;;;;;7.03;4.43;;;;;;;15.33;84.10;101605.94;5066357;28;20444;-36
2022/05/10 05:31:25;;;;;;;9.98;5.10;;;;;;;15.38;83.84;101614.28;5057491;28;20147;-33
2022/05/10 05:33:54;;;;;;;8.73;5.03;;;;;;;15.40;83.96;101609.16;5066585;28;20056;-34
2022/05/10 05:36:21;;;;;;;8.30;4.50;;;;;;;15.45;83.68;101603.44;5064011;28;20094;-33
2022/05/10 05:38:50;;;;;;;10.07;5.25;;;;;;;15.48;83.67;101602.81;5066350;28;20052;-28
2022/05/10 05:41:18;;;;;;;7.97;5.32;;;;;;;15.54;83.53;101606.34;5063783;28;20072;-36
2022/05/10 05:43:47;;;;;;;7.28;4.68;;;;;;;15.59;83.43;101603.44;5066856;28;20516;-28
2022/05/10 05:46:15;;;;;;;8.77;5.15;;;;;;;15.62;83.18;101594.38;5063007;28;20059;-34
2022/05/10 05:48:44;;;;;;;9.57;5.00;;;;;;;15.67;83.27;101601.88;5066938;28;20036;-36
2022/05/10 05:51:12;;;;;;;7.65;4.82;;;;;;;15.72;83.09;101596.97;5063692;28;20045;-28
2022/05/10 05:53:40;;;;;;;11.02;5.15;;;;;;;15.75;82.93;101593.53;5065967;28;20045;-28
2022/05/10 05:56:10;;;;;;;8.38;4.72;;;;;;;15.82;82.91;101588.28;5064587;28;20041;-31
2022/05/10 05:58:39;;;;;;;8.98;4.90;;;;;;;15.89;82.57;101590.66;5050627;28;20044;-33
2022/05/10 06:01:15;;;;;;;9.23;5.63;;;;;;;15.94;82.61;101582.13;5061229;28;20048;-33
2022/05/10 06:03:44;;;;;;;6.00;4.40;;;;;;;16.00;82.12;101585.63;5061311;28;20521;-30
2022/05/10 06:06:12;;;;;;;8.65;5.45;;;;;;;16.05;81.99;101582.69;5061199;28;20080;-28
2022/05/10 06:08:44;;;;;;;6.30;4.47;;;;;;;16.13;81.57;101574.31;5060640;28;20045;-26
2022/05/10 06:11:12;;;;;;;8.57;4.88;;;;;;;16.22;81.35;101579.16;5061794;28;20436;-32
2022/05/10 06:13:40;;;;;;;9.05;5.38;;;;;;;16.28;81.30;101584.38;5060584;28;20052;-38
2022/05/10 06:16:09;;;;;;;9.52;5.65;;;;;;;16.36;80.88;101571.50;5065189;28;20045;-33
2022/05/10 06:18:37;;;;;;;10.27;5.00;;;;;;;16.43;80.40;101572.69;5066056;28;20099;-34
2022/05/10 06:21:06;;;;;;;10.23;5.57;;;;;;;16.52;80.18;101559.50;5065127;28;20064;-29
2022/05/10 06:23:34;;;;;;;11.55;5.68;;;;;;;16.61;79.76;101559.53;5056826;28;20055;-27
2022/05/10 06:26:01;;;;;;;9.68;5.78;;;;;;;16.67;79.29;101560.28;5065997;28;20501;-34
2022/05/10 06:28:29;;;;;;;10.73;5.75;;;;;;;16.74;78.81;101555.03;5064210;28;20390;-34
2022/05/10 06:30:57;;;;;;;12.85;5.95;;;;;;;16.80;78.39;101556.53;5065927;28;20052;-37
2022/05/10 06:33:25;;;;;;;8.60;4.90;;;;;;;16.87;77.72;101560.56;5062732;28;20379;-29
2022/05/10 06:35:53;;;;;;;7.20;4.63;;;;;;;16.98;77.39;101561.13;5057042;28;20056;-30
2022/05/10 06:38:27;;;;;;;8.13;4.50;;;;;;;17.08;77.15;101559.97;5062768;28;20482;-33
2022/05/10 06:40:56;;;;;;;9.05;4.65;;;;;;;17.14;76.69;101541.75;5065980;28;20499;-31
2022/05/10 06:43:30;;;;;;;8.85;4.80;;;;;;;17.20;76.21;101546.06;5062080;28;20063;-29
2022/05/10 06:46:04;;;;;;;7.80;4.18;;;;;;;17.27;75.69;101540.78;5057217;28;20049;-32
2022/05/10 06:48:32;;;;;;;8.93;4.63;;;;;;;17.36;75.21;101529.53;5062707;28;20416;-34
2022/05/10 06:50:59;;;;;;;8.27;4.18;;;;;;;17.45;74.16;101539.66;5064817;28;20036;-35
2022/05/10 06:53:28;;;;;;;7.38;4.20;;;;;;;17.62;72.85;101536.03;5062770;28;20626;-35
2022/05/10 06:55:56;;;;;;;6.50;4.05;;;;;;;17.77;72.07;101535.59;5064721;28;20474;-32
2022/05/10 06:58:24;;;;;;;9.65;4.35;;;;;;;17.88;70.94;101536.09;5062344;28;20056;-27
2022/05/10 07:00:52;;;;;;;8.15;3.53;;;;;;;18.01;71.13;101532.25;5065427;28;20076;-31
2022/05/10 07:03:28;;;;;;;7.95;3.15;;;;;;;18.13;68.83;101526.78;5062736;28;20044;-33
2022/05/10 07:06:00;;;;;;;5.15;2.88;;;;;;;18.28;68.24;101524.59;5060116;28;20068;-29
2022/05/10 07:08:30;;;;;;;8.07;3.17;;;;;;;18.45;67.74;101511.25;5061814;28;20036;-32
2022/05/10 07:10:58;;;;;;;9.43;2.95;;;;;;;18.59;66.08;101508.25;5059016;28;20501;-35
2022/05/10 07:13:28;;;;;;;7.70;2.92;;;;;;;18.77;64.36;101509.03;5060041;28;20110;-34
2022/05/10 07:15:57;;;;;;;;;;;;;;;18.88;59.22;101505.47;5060374;28;20550;-32
2022/05/10 07:18:26;;;;;;;9.00;3.20;;;;;;;19.03;62.40;101501.22;5059965;28;20461;-34
2022/05/10 07:20:54;;;;;;;11.82;3.78;;;;;;;19.17;60.27;101510.34;5059612;28;20137;-30
2022/05/10 07:23:23;;;;;;;16.83;4.10;;;;;;;19.27;60.28;101518.41;5068044;28;20050;-35
2022/05/10 07:25:53;;;;;;;19.02;3.70;;;;;;;19.35;59.29;101527.19;5064080;28;20055;-36
2022/05/10 07:28:20;;;;;;;11.82;4.05;;;;;;;19.37;59.60;101507.88;5064479;28;20047;-35
2022/05/10 07:30:48;;;;;;;13.30;4.55;;;;;;;19.39;59.26;101499.84;5064904;28;20059;-31
2022/05/10 07:33:19;;;;;;;13.00;4.05;;;;;;;19.37;59.95;101499.38;5063764;28;20250;-34
2022/05/10 07:38:36;;;;;;;16.58;5.22;;;;;;;19.31;59.40;101500.75;5075562;28;20056;-31
2022/05/10 07:41:05;;;;;;;15.63;4.32;;;;;;;19.35;60.13;101501.72;5064808;28;20048;-30
2022/05/10 07:43:36;;;;;;;11.70;4.72;;;;;;;19.34;60.01;101491.56;5054703;28;20041;-35
2022/05/10 07:46:06;;;;;;;10.32;4.25;;;;;;;19.38;60.04;101493.38;5059761;28;20049;-29
2022/05/10 07:48:34;;;;;;;12.88;4.63;;;;;;;19.40;60.17;101490.19;5059054;28;20053;-32
2022/05/10 07:51:02;;;;;;;10.68;4.40;;;;;;;19.43;59.86;101498.81;5055918;28;20059;-34
2022/05/10 07:53:31;;;;;;;9.68;4.10;;;;;;;19.44;59.76;101494.81;5063731;28;20051;-30
2022/05/10 07:56:00;;;;;;;14.48;4.65;;;;;;;19.50;59.99;101485.00;5061495;28;20041;-31
2022/05/10 07:58:30;;;;;;;10.15;4.35;;;;;;;19.55;59.90;101487.63;5064517;28;20057;-30
2022/05/10 08:00:59;;;;;;;12.35;4.47;;;;;;;19.66;60.11;101487.19;5060426;28;20056;-33
2022/05/10 08:03:28;;;;;;;11.63;4.60;;;;;;;19.81;58.98;101480.91;5064716;28;20091;-36
2022/05/10 08:05:56;;;;;;;12.43;4.65;;;;;;;19.94;58.35;101479.78;5061657;28;20064;-29
2022/05/10 08:08:25;;;;;;;14.57;4.72;;;;;;;20.03;58.28;101499.53;5063781;28;20099;-31
2022/05/10 08:11:02;;;;;;;14.18;4.47;;;;;;;20.02;58.11;101486.53;5061145;28;20048;-30
2022/05/10 08:13:33;;;;;;;9.70;4.57;;;;;;;20.00;58.32;101488.88;5064020;28;20074;-31
2022/05/10 08:16:01;;;;;;;11.13;4.43;;;;;;;20.06;58.27;101484.66;5061605;28;20052;-29
2022/05/10 08:18:29;;;;;;;18.67;5.85;;;;;;;20.10;58.50;101500.63;5064344;28;20084;-29
2022/05/10 08:20:59;;;;;;;12.82;5.10;;;;;;;20.16;58.51;101499.25;5061277;28;20044;-31
2022/05/10 08:23:29;;;;;;;13.70;4.80;;;;;;;20.20;58.50;101497.34;5069420;28;20055;-37
2022/05/10 08:25:59;;;;;;;15.27;5.18;;;;;;;20.20;58.63;101505.84;5059684;28;20095;-33
2022/05/10 08:28:28;;;;;;;14.77;5.30;;;;;;;20.19;59.21;101492.84;5058155;28;20048;-35
2022/05/10 08:30:58;;;;;;;14.02;5.90;;;;;;;20.21;59.24;101493.34;5059336;28;20132;-35
2022/05/10 08:33:30;;;;;;;12.57;5.43;;;;;;;20.14;60.11;101484.59;5061028;28;20069;-36
2022/05/10 08:35:58;;;;;;;15.05;5.70;;;;;;;20.10;60.24;101494.13;5062242;28;20283;-35
2022/05/10 08:38:27;;;;;;;14.80;5.60;;;;;;;20.08;60.90;101491.66;5057838;28;20032;-32
2022/05/10 08:41:01;;;;;;;13.98;6.00;;;;;;;19.97;61.35;101487.59;5061353;28;20429;-30
2022/05/10 08:43:33;;;;;;;14.07;5.22;;;;;;;19.86;62.23;101477.88;5067479;28;20062;-30
2022/05/10 08:46:03;;;;;;;14.88;5.18;;;;;;;19.77;63.08;101497.78;5063092;28;20053;-33
2022/05/10 08:48:32;;;;;;;9.50;5.07;;;;;;;19.60;64.60;101526.22;5062083;28;20132;-31
2022/05/10 08:51:02;;;;;;;12.85;5.22;;;;;;;19.38;66.07;101526.53;5062512;28;20052;-31
2022/05/10 08:53:32;;;;;;;9.18;5.10;;;;;;;19.19;67.71;101527.75;5062779;28;20045;-34
2022/05/10 08:56:06;;;;;;;10.15;5.13;;;;;;;19.01;69.17;101525.38;5061857;28;20053;-29
2022/05/10 08:58:50;;;;;;;11.55;5.60;;;;;;;18.92;70.14;101526.25;5063071;28;20045;-29
2022/05/10 09:01:47;;;;;;;14.85;6.28;;;;;;;18.78;71.76;101519.19;5063160;28;20052;-40
2022/05/10 09:04:41;;;;;;;10.82;5.15;;;;;;;18.71;72.81;101524.50;5060556;28;20091;-29
2022/05/10 09:07:22;;;;;;;10.27;5.35;;;;;;;18.68;72.84;101520.34;5066819;28;20068;-35
2022/05/10 09:10:02;;;;;;;12.27;5.82;;;;;;;18.67;73.33;101517.88;5078738;28;20056;-30
2022/05/10 09:12:42;;;;;;;12.05;5.80;;;;;;;18.70;73.64;101514.38;5053392;28;20075;-29
2022/05/10 09:15:11;;;;;;;11.23;5.57;;;;;;;18.73;73.71;101519.34;5062295;28;20392;-29
2022/05/10 09:17:41;;;;;;;14.15;6.05;;;;;;;18.68;73.85;101519.53;5062127;28;20055;-29
2022/05/10 09:20:11;;;;;;;12.27;5.97;;;;;;;18.62;74.09;101518.03;5061981;28;20152;-33
2022/05/10 09:23:24;;;;;;;12.38;6.07;;;;;;;18.49;74.86;101517.91;5054866;28;20040;-29
2022/05/10 09:25:57;;;;;;;13.40;6.25;;;;;;;18.43;75.17;101521.22;5038855;28;20457;-33
2022/05/10 09:28:30;;;;;;;16.75;6.35;;;;;;;18.44;75.34;101505.94;5064989;28;20044;-34
2022/05/10 09:34:47;;;;;;;14.68;7.38;;;;;;;18.20;76.57;101501.66;5058696;28;20432;-29
2022/05/10 09:37:18;;;;;;;18.33;6.80;;;;;;;18.28;76.97;101504.81;5064558;28;20143;-31
2022/05/10 09:39:50;;;;;;;11.52;5.75;;;;;;;18.27;77.15;101498.34;5064402;28;20044;-27
2022/05/10 09:42:33;;;;;;;13.40;6.18;;;;;;;18.18;77.77;101492.72;5067282;28;20037;-33
2022/05/10 09:45:05;;;;;;;9.43;5.40;;;;;;;18.09;78.15;101494.72;5060479;28;20083;-32
2022/05/10 09:47:33;;;;;;;11.60;6.15;;;;;;;18.10;78.20;101501.19;5067626;28;20045;-30
2022/05/10 09:50:15;;;;;;;13.40;6.60;;;;;;;18.06;78.58;101489.72;5058609;28;20056;-30
2022/05/10 09:52:43;;;;;;;9.55;5.40;;;;;;;17.92;79.46;101497.56;5065774;28;20052;-35
2022/05/10 09:55:25;;;;;;;12.13;5.90;;;;;;;17.96;79.70;101492.91;5064157;28;20049;-37
2022/05/10 09:57:53;;;;;;;13.13;6.18;;;;;;;17.86;80.65;101496.88;5066878;28;20052;-29
2022/05/10 10:00:41;;;;;;;13.30;6.22;;;;;;;17.92;81.17;101491.09;5057220;28;20048;-34
2022/05/10 10:03:09;;;;;;;12.18;5.82;;;;;;;17.96;81.06;101490.09;5064167;28;20167;-30
2022/05/10 10:05:39;;;;;;;11.88;6.03;;;;;;;18.08;80.95;101481.75;5064630;28;20128;-29
2022/05/10 10:08:09;;;;;;;12.02;6.07;;;;;;;18.25;80.17;101483.72;5065948;28;20044;-29
2022/05/10 10:10:38;;;;;;;16.02;6.90;;;;;;;18.44;79.57;101478.50;5063248;28;20068;-32
2022/05/10 10:13:32;;;;;;;13.73;6.57;;;;;;;18.55;78.55;101488.28;5065954;28;20149;-30
2022/05/10 10:16:01;;;;;;;14.63;5.45;;;;;;;18.49;78.34;101500.09;5059846;28;20083;-34
2022/05/10 10:18:44;;;;;;;13.68;6.05;;;;;;;18.44;78.84;101501.09;5066300;28;20049;-33
2022/05/10 10:21:19;;;;;;;13.95;5.90;;;;;;;18.42;79.16;101516.75;5059689;28;20083;-30
2022/05/10 10:23:52;;;;;;;11.25;5.28;;;;;;;18.65;79.47;101518.19;5056836;28;20073;-38
2022/05/10 10:26:27;;;;;;;11.18;5.80;;;;;;;19.00;78.19;101506.72;5064604;28;20037;-30
2022/05/10 10:29:05;;;;;;;12.38;5.70;;;;;;;19.22;76.63;101512.94;5065201;28;20053;-29
2022/05/10 10:31:37;;;;;;;12.02;5.63;;;;;;;19.29;75.01;101526.56;5064979;28;20549;-30
2022/05/10 10:34:11;;;;;;;9.70;5.30;;;;;;;19.28;74.84;101519.25;5065751;28;20041;-28
2022/05/10 10:36:50;;;;;;;10.63;5.30;;;;;;;19.37;73.78;101505.06;5058811;28;20057;-34
2022/05/10 10:39:26;;;;;;;12.00;5.63;;;;;;;19.35;73.47;101525.19;5062945;28;20044;-29
2022/05/10 10:42:02;;;;;;;10.50;5.03;;;;;;;19.25;72.91;101502.94;5064042;28;20547;-31
2022/05/10 10:44:31;;;;;;;16.52;5.90;;;;;;;19.28;72.74;101519.25;5062969;28;20060;-33
2022/05/10 10:47:09;;;;;;;9.48;5.00;;;;;;;19.29;72.35;101515.25;5063712;28;20548;-32
2022/05/10 10:49:42;;;;;;;11.63;5.47;;;;;;;19.39;72.07;101526.16;5065128;28;20136;-31
2022/05/10 10:52:12;;;;;;;10.95;5.25;;;;;;;19.47;70.63;101521.63;5058658;28;20052;-31
2022/05/10 10:54:39;;;;;;;11.65;4.93;;;;;;;19.69;70.13;101517.66;5065861;28;20053;-36
2022/05/10 10:57:40;;;;;;;10.77;5.45;;;;;;;19.68;69.50;101510.34;5061484;28;20053;-32
2022/05/10 11:00:16;;;;;;;12.55;5.40;;;;;;;19.52;69.42;101510.97;5063174;28;20527;-34
2022/05/10 11:02:58;;;;;;;9.55;4.78;;;;;;;19.42;69.85;101522.63;5064163;28;20139;-29
2022/05/10 11:05:46;;;;;;;12.63;4.30;;;;;;;19.49;70.10;101519.28;5064865;28;20056;-29
2022/05/10 11:08:26;;;;;;;14.13;5.35;;;;;;;19.49;70.14;101520.09;5065209;28;20055;-30
2022/05/10 11:11:00;;;;;;;8.50;4.20;;;;;;;19.61;70.27;101511.72;5060609;28;20068;-35
2022/05/10 11:13:41;;;;;;;12.50;4.97;;;;;;;19.77;68.60;101514.78;5059922;28;20041;-39
2022/05/10 11:16:26;;;;;;;10.70;4.72;;;;;;;19.52;68.29;101530.78;5059999;28;20053;-31
2022/05/10 11:19:20;;;;;;;8.85;4.28;;;;;;;19.45;69.79;101519.13;5061367;28;20049;-29
2022/05/10 11:22:03;;;;;;;9.80;4.20;;;;;;;19.31;70.42;101529.88;5064500;28;20044;-32
2022/05/10 11:24:44;;;;;;;14.35;4.22;;;;;;;19.14;70.76;101529.97;5064843;28;20059;-29
2022/05/10 11:27:31;;;;;;;9.95;4.53;;;;;;;18.90;70.80;101525.75;5062311;28;20044;-38
2022/05/10 11:30:07;;;;;;;11.75;4.07;;;;;;;18.72;72.12;101520.53;5050839;28;20045;-33
2022/05/10 11:32:58;;;;;;;10.63;4.00;;;;;;;18.70;72.01;101515.19;5062691;28;20048;-30
2022/05/10 11:35:55;;;;;;;8.85;3.33;;;;;;;18.83;71.86;101521.78;5059261;28;20487;-30
2022/05/10 11:39:05;;;;;;;9.13;3.72;;;;;;;18.83;71.38;101533.94;5062223;28;20068;-35
2022/05/10 11:41:40;;;;;;;8.82;3.28;;;;;;;18.68;71.65;101528.84;5055776;28;20060;-30
2022/05/10 11:44:30;;;;;;;9.48;2.88;;;;;;;18.57;71.70;101527.53;5064803;28;20051;-36
2022/05/10 11:47:28;;;;;;;8.57;3.03;;;;;;;18.42;72.24;101509.09;5058649;28;20417;-35
2022/05/10 11:50:14;;;;;;;10.35;3.33;;;;;;;18.37;72.50;101512.13;5060963;28;20445;-29
2022/05/10 11:53:03;;;;;;;7.93;3.00;;;;;;;18.31;72.53;101515.44;5064130;28;20048;-29
2022/05/10 11:55:36;;;;;;;8.68;3.35;;;;;;;18.29;72.46;101512.97;5064686;28;20416;-30